Time;durP1;ratioP1;P1;durP2;ratioP2;P2;SDS_P1;SDS_P2;PMS_P1;PMS_P2;Temp;Humidity;BMP_temperature;BMP_pressure;BME280_temperature;BME280_humidity;BME280_pressure;Samples;Min_cycle;Max_cycle;Signal;HPM_P1;HPM_P2
2022/12/06 00:01:58;;;;;;;;;;;;;;;16.45;48.56;101745.19;5056526;28;1183;-51
2022/12/06 00:04:23;;;;;;;;;;;;;;;17.17;46.48;101738.06;5056794;28;1992;-49
2022/12/06 00:06:51;;;;;;;;;;;;;;;16.28;48.60;101737.75;5056454;28;1100;-53
2022/12/06 00:09:18;;;;;;;;;;;;;;;15.93;49.64;101741.53;5056197;28;1424;-52
2022/12/06 00:11:44;;;;;;;;;;;;;;;16.06;49.29;101743.13;5056498;28;1226;-51
2022/12/06 00:14:09;;;;;;;;;;;;;;;17.51;45.84;101732.44;5056135;28;1167;-53
2022/12/06 00:16:35;;;;;;;;;;;;;;;16.45;48.21;101735.03;5038202;28;1238;-52
2022/12/06 00:19:00;;;;;;;;;;;;;;;16.00;49.31;101728.50;5056237;28;1131;-53
2022/12/06 00:21:29;;;;;;;;;;;;;;;15.78;49.93;101724.75;5056431;28;1128;-49
2022/12/06 00:23:56;;;;;;;;;;;;;;;17.17;46.66;101727.91;5055848;28;1925;-48
2022/12/06 00:26:22;;;;;;;;;;;;;;;16.47;48.27;101726.56;5056232;28;1148;-53
2022/12/06 00:28:47;;;;;;;;;;;;;;;15.97;49.58;101717.19;5056306;28;1107;-49
2022/12/06 00:31:14;;;;;;;;;;;;;;;15.71;50.09;101717.53;5056229;28;1096;-53
2022/12/06 00:33:39;;;;;;;;;;;;;;;16.30;48.83;101721.03;5056457;28;1160;-51
2022/12/06 00:36:06;;;;;;;;;;;;;;;17.43;45.83;101720.81;5056168;28;1109;-51
2022/12/06 00:38:31;;;;;;;;;;;;;;;16.31;48.43;101717.22;5055584;28;1172;-53
2022/12/06 00:40:57;;;;;;;;;;;;;;;15.88;49.80;101725.81;5055861;28;1158;-50
2022/12/06 00:43:22;;;;;;;;;;;;;;;17.09;46.84;101717.34;5055906;28;1965;-51
2022/12/06 00:45:48;;;;;;;;;;;;;;;16.55;47.92;101712.41;5055727;28;1223;-49
2022/12/06 00:48:13;;;;;;;;;;;;;;;16.07;49.10;101706.41;5056133;28;1226;-51
2022/12/06 00:50:39;;;;;;;;;;;;;;;15.77;49.97;101706.63;5055803;28;1827;-48
2022/12/06 00:53:04;;;;;;;;;;;;;;;15.64;50.56;101692.16;5056232;28;1160;-52
2022/12/06 00:55:30;;;;;;;;;;;;;;;17.21;46.64;101693.31;5056275;28;1092;-52
2022/12/06 00:57:55;;;;;;;;;;;;;;;16.51;48.01;101694.75;5055772;28;1195;-51
2022/12/06 01:00:20;;;;;;;;;;;;;;;15.97;49.33;101684.28;5055922;28;1191;-52
2022/12/06 01:02:46;;;;;;;;;;;;;;;15.72;49.98;101686.28;5055481;28;1214;-51
2022/12/06 01:05:11;;;;;;;;;;;;;;;16.50;48.27;101693.94;5056146;28;1955;-49
2022/12/06 01:07:37;;;;;;;;;;;;;;;16.98;46.84;101682.56;5055968;28;1152;-51
2022/12/06 01:10:03;;;;;;;;;;;;;;;16.13;49.10;101683.47;5055660;28;1167;-49
2022/12/06 01:12:29;;;;;;;;;;;;;;;15.81;49.99;101680.41;5055853;28;1190;-54
2022/12/06 01:14:54;;;;;;;;;;;;;;;17.22;46.43;101681.25;5038044;28;1136;-52
2022/12/06 01:17:20;;;;;;;;;;;;;;;16.88;47.07;101688.72;5055977;28;1156;-53
2022/12/06 01:19:45;;;;;;;;;;;;;;;16.18;48.99;101677.22;5056177;28;1155;-52
2022/12/06 01:22:10;;;;;;;;;;;;;;;15.86;49.92;101677.78;5055536;28;1167;-53
2022/12/06 01:24:36;;;;;;;;;;;;;;;16.35;48.66;101683.53;5055414;28;1963;-53
2022/12/06 01:27:01;;;;;;;;;;;;;;;17.27;46.21;101674.97;5055760;28;1211;-49
2022/12/06 01:29:27;;;;;;;;;;;;;;;16.35;48.65;101669.81;5059190;28;1156;-51
2022/12/06 01:31:52;;;;;;;;;;;;;;;15.90;49.75;101673.47;5058978;28;1378;-52
2022/12/06 01:34:17;;;;;;;;;;;;;;;15.70;50.11;101663.75;5059404;28;1120;-52
2022/12/06 01:36:43;;;;;;;;;;;;;;;15.88;50.00;101661.91;5059038;28;1147;-52
2022/12/06 01:39:09;;;;;;;;;;;;;;;17.32;46.29;101658.56;5058750;28;1352;-53
2022/12/06 01:41:35;;;;;;;;;;;;;;;16.27;48.92;101652.94;5059283;28;1136;-50
2022/12/06 01:44:00;;;;;;;;;;;;;;;15.87;49.75;101652.00;5058772;28;1889;-52
2022/12/06 01:46:32;;;;;;;;;;;;;;;16.18;49.20;101652.53;5058766;28;1218;-54
2022/12/06 01:49:01;;;;;;;;;;;;;;;17.18;46.60;101643.53;5059102;28;1190;-50
2022/12/06 01:51:26;;;;;;;;;;;;;;;16.21;48.96;101638.31;5040728;28;1413;-53
2022/12/06 01:53:52;;;;;;;;;;;;;;;15.88;49.89;101638.06;5041067;28;1144;-51
2022/12/06 01:56:17;;;;;;;;;;;;;;;16.19;49.29;101643.22;5059105;28;1218;-50
2022/12/06 01:58:43;;;;;;;;;;;;;;;17.31;46.30;101639.56;5058974;28;1207;-50
2022/12/06 02:01:08;;;;;;;;;;;;;;;16.32;48.82;101642.88;5041274;28;1168;-53
2022/12/06 02:03:34;;;;;;;;;;;;;;;15.92;49.69;101641.13;5058296;28;1894;-48
2022/12/06 02:06:00;;;;;;;;;;;;;;;15.72;50.32;101638.81;5058355;28;1207;-52
2022/12/06 02:08:25;;;;;;;;;;;;;;;17.13;47.04;101643.47;5058775;28;1097;-51
2022/12/06 02:10:51;;;;;;;;;;;;;;;16.91;47.03;101631.41;5040937;28;1136;-50
2022/12/06 02:13:16;;;;;;;;;;;;;;;16.17;48.89;101635.25;5058650;28;1151;-50
2022/12/06 02:15:51;;;;;;;;;;;;;;;15.86;50.10;101631.97;5040270;28;950;-48
2022/12/06 02:18:31;;;;;;;;;;;;;;;15.68;50.23;101626.69;5058523;28;1191;-52
2022/12/06 02:21:03;;;;;;;;;;;;;;;17.08;46.85;101625.00;5058668;28;1178;-48
2022/12/06 02:23:34;;;;;;;;;;;;;;;16.35;48.77;101623.16;5040142;28;1965;-52
2022/12/06 02:26:00;;;;;;;;;;;;;;;15.86;49.90;101618.25;5058238;28;1128;-48
2022/12/06 02:28:44;;;;;;;;;;;;;;;15.82;50.18;101616.25;5044136;28;923;-51
2022/12/06 02:31:22;;;;;;;;;;;;;;;17.43;45.89;101615.50;5058602;28;1088;-53
2022/12/06 02:33:48;;;;;;;;;;;;;;;16.29;48.80;101610.44;5039966;28;1215;-53
2022/12/06 02:36:17;;;;;;;;;;;;;;;15.95;49.59;101617.84;5058346;28;1134;-49
2022/12/06 02:38:43;;;;;;;;;;;;;;;15.68;50.48;101619.31;5056974;28;1228;-52
2022/12/06 02:41:17;;;;;;;;;;;;;;;16.87;47.48;101610.13;5040195;28;1128;-50
2022/12/06 02:43:44;;;;;;;;;;;;;;;16.79;47.46;101614.19;5039902;28;1975;-51
2022/12/06 02:46:10;;;;;;;;;;;;;;;16.08;49.35;101612.84;5040356;28;1191;-52
2022/12/06 02:48:35;;;;;;;;;;;;;;;15.80;49.95;101621.19;5040219;28;1172;-53
2022/12/06 02:51:08;;;;;;;;;;;;;;;16.96;47.33;101614.16;5039478;28;970;-50
2022/12/06 02:53:34;;;;;;;;;;;;;;;16.57;48.21;101616.88;5039964;28;1117;-52
2022/12/06 02:55:59;;;;;;;;;;;;;;;16.01;49.62;101617.69;5040074;28;1164;-51
2022/12/06 02:58:25;;;;;;;;;;;;;;;15.76;50.09;101615.31;5057597;28;1157;-51
2022/12/06 03:00:54;;;;;;;;;;;;;;;17.18;47.00;101616.03;5057425;28;1175;-53
2022/12/06 03:03:29;;;;;;;;;;;;;;;16.49;48.56;101620.88;5057614;28;1913;-52
2022/12/06 03:06:01;;;;;;;;;;;;;;;15.99;49.86;101622.59;5057193;28;1170;-53
2022/12/06 03:08:35;;;;;;;;;;;;;;;15.73;50.35;101619.38;5057786;28;1052;-50
2022/12/06 03:11:00;;;;;;;;;;;;;;;16.34;49.03;101612.44;5057465;28;1167;-53
2022/12/06 03:13:30;;;;;;;;;;;;;;;17.18;46.58;101610.53;5039744;28;1109;-52
2022/12/06 03:15:59;;;;;;;;;;;;;;;16.22;48.98;101615.28;5039421;28;886;-50
2022/12/06 03:18:30;;;;;;;;;;;;;;;15.92;49.79;101616.44;5057099;28;1096;-51
2022/12/06 03:21:04;;;;;;;;;;;;;;;17.33;46.30;101612.63;5057325;28;1132;-48
2022/12/06 03:23:30;;;;;;;;;;;;;;;16.31;49.05;101624.72;5056968;28;1980;-50
2022/12/06 03:25:57;;;;;;;;;;;;;;;15.89;49.83;101617.78;5057132;28;1151;-52
2022/12/06 03:28:22;;;;;;;;;;;;;;;15.70;50.40;101624.53;5056915;28;961;-48
2022/12/06 03:30:49;;;;;;;;;;;;;;;16.51;48.76;101623.38;5039491;28;1125;-50
2022/12/06 03:33:14;;;;;;;;;;;;;;;17.01;47.21;101622.47;5057382;28;1139;-50
2022/12/06 03:35:40;;;;;;;;;;;;;;;16.14;49.22;101618.44;5056557;28;1250;-49
2022/12/06 03:38:12;;;;;;;;;;;;;;;15.83;50.27;101620.69;5039359;28;1121;-51
2022/12/06 03:40:38;;;;;;;;;;;;;;;15.77;50.55;101616.13;5056745;28;1132;-48
2022/12/06 03:43:04;;;;;;;;;;;;;;;17.38;46.61;101613.53;5057111;28;1156;-51
2022/12/06 03:45:33;;;;;;;;;;;;;;;16.43;48.55;101614.50;5056740;28;1914;-50
2022/12/06 03:48:15;;;;;;;;;;;;;;;16.00;49.60;101618.75;5057016;28;1124;-49
2022/12/06 03:50:42;;;;;;;;;;;;;;;15.69;50.66;101611.91;5038948;28;1009;-49
2022/12/06 03:53:08;;;;;;;;;;;;;;;16.23;49.33;101616.94;5056399;28;922;-51
2022/12/06 03:55:33;;;;;;;;;;;;;;;17.19;46.74;101623.19;5038683;28;1172;-52
2022/12/06 03:57:59;;;;;;;;;;;;;;;16.18;49.41;101609.44;5056328;28;1155;-49
2022/12/06 04:00:24;;;;;;;;;;;;;;;15.82;50.02;101610.78;5056408;28;1175;-48
2022/12/06 04:02:49;;;;;;;;;;;;;;;16.86;47.77;101609.31;5056479;28;1128;-51
2022/12/06 04:05:15;;;;;;;;;;;;;;;16.75;47.85;101608.34;5055831;28;1905;-52
2022/12/06 04:07:40;;;;;;;;;;;;;;;16.07;49.56;101604.88;5056765;28;1159;-51
2022/12/06 04:10:06;;;;;;;;;;;;;;;15.83;49.97;101604.22;5056532;28;1433;-47
2022/12/06 04:15:16;;;;;;;;;;;;;;;16.99;47.23;101608.13;5056193;28;1180;-48
2022/12/06 04:20:25;;;;;;;;;;;;;;;15.85;50.31;101599.31;5056095;28;1404;-56
2022/12/06 04:23:03;;;;;;;;;;;;;;;16.68;48.13;101607.72;5056205;28;1164;-55
2022/12/06 04:25:32;;;;;;;;;;;;;;;17.04;47.15;101610.09;5056049;28;1975;-55
2022/12/06 04:38:53;;;;;;;;;;;;;;;16.11;49.35;101621.69;5056101;28;1088;-55
2022/12/06 04:44:10;;;;;;;;;;;;;;;17.26;46.81;101619.19;5039791;28;1901;-52
2022/12/06 04:46:35;;;;;;;;;;;;;;;16.46;48.49;101623.31;5056042;28;1235;-56
2022/12/06 04:49:01;;;;;;;;;;;;;;;15.98;49.75;101615.44;5056033;28;1104;-55
2022/12/06 04:51:26;;;;;;;;;;;;;;;15.77;50.50;101614.25;5055443;28;1226;-53
2022/12/06 04:53:52;;;;;;;;;;;;;;;17.36;46.39;101615.72;5056524;28;1183;-55
2022/12/06 04:56:17;;;;;;;;;;;;;;;16.54;48.45;101609.97;5055920;28;1120;-53
2022/12/06 04:58:43;;;;;;;;;;;;;;;16.02;49.54;101613.88;5055648;28;1140;-52
2022/12/06 05:01:08;;;;;;;;;;;;;;;15.78;50.49;101620.53;5056084;28;1191;-53
2022/12/06 05:03:34;;;;;;;;;;;;;;;15.74;50.64;101610.06;5058192;28;1910;-52
2022/12/06 05:05:59;;;;;;;;;;;;;;;17.36;46.61;101612.13;5059454;28;1231;-53
2022/12/06 05:08:25;;;;;;;;;;;;;;;16.51;48.64;101612.41;5059533;28;1152;-50
2022/12/06 05:10:50;;;;;;;;;;;;;;;15.96;49.91;101614.03;5059603;28;1214;-49
2022/12/06 05:13:16;;;;;;;;;;;;;;;15.77;50.35;101616.13;5059341;28;1226;-54
2022/12/06 05:15:50;;;;;;;;;;;;;;;16.74;48.15;101606.69;5059514;28;1116;-53
2022/12/06 05:18:15;;;;;;;;;;;;;;;17.05;47.15;101606.28;5059352;28;1222;-54
2022/12/06 05:20:41;;;;;;;;;;;;;;;16.25;49.23;101610.09;5059749;28;1151;-52
2022/12/06 05:23:06;;;;;;;;;;;;;;;15.90;49.92;101607.63;5059977;28;1171;-53
2022/12/06 05:25:32;;;;;;;;;;;;;;;16.55;48.79;101603.41;5059296;28;1971;-52
2022/12/06 05:27:57;;;;;;;;;;;;;;;17.03;47.27;101605.72;5059071;28;1249;-53
2022/12/06 05:30:22;;;;;;;;;;;;;;;16.18;49.45;101603.13;5058374;28;2519;-55
2022/12/06 05:32:48;;;;;;;;;;;;;;;15.86;49.92;101601.78;5057304;28;1856;-55
2022/12/06 05:35:13;;;;;;;;;;;;;;;15.67;50.52;101605.81;5058189;28;2201;-54
2022/12/06 05:37:39;;;;;;;;;;;;;;;17.14;47.14;101609.41;5058135;28;1952;-53
2022/12/06 05:40:07;;;;;;;;;;;;;;;16.32;48.95;101603.63;5058816;28;2070;-56
2022/12/06 05:42:32;;;;;;;;;;;;;;;15.91;50.12;101614.78;5058762;28;2300;-57
2022/12/06 05:44:57;;;;;;;;;;;;;;;15.90;50.10;101607.63;5058268;28;2114;-55
2022/12/06 05:47:23;;;;;;;;;;;;;;;17.45;46.13;101605.91;5058473;28;1189;-57
2022/12/06 05:49:50;;;;;;;;;;;;;;;16.49;48.56;101604.41;5053169;28;1163;-56
2022/12/06 05:52:15;;;;;;;;;;;;;;;16.00;49.65;101609.72;5049628;28;1112;-53
2022/12/06 05:54:41;;;;;;;;;;;;;;;15.74;50.58;101601.84;5058304;28;1127;-56
2022/12/06 05:57:06;;;;;;;;;;;;;;;15.90;50.26;101602.97;5058469;28;1135;-54
2022/12/06 05:59:32;;;;;;;;;;;;;;;17.31;46.57;101593.66;5039363;28;1128;-56
2022/12/06 06:01:57;;;;;;;;;;;;;;;16.28;49.09;101607.94;5045924;28;1175;-55
2022/12/06 06:04:23;;;;;;;;;;;;;;;15.88;49.94;101609.81;5058155;28;1902;-54
2022/12/06 06:06:48;;;;;;;;;;;;;;;15.90;50.32;101618.59;5058366;28;1178;-55
2022/12/06 06:09:14;;;;;;;;;;;;;;;17.34;46.24;101614.31;5058264;28;1140;-55
2022/12/06 06:11:39;;;;;;;;;;;;;;;16.31;48.86;101619.25;5057624;28;1167;-55
2022/12/06 06:14:04;;;;;;;;;;;;;;;15.92;49.84;101613.69;5056696;28;1163;-55
2022/12/06 06:16:31;;;;;;;;;;;;;;;15.69;50.71;101612.72;5057677;28;1778;-55
2022/12/06 06:18:57;;;;;;;;;;;;;;;16.33;49.17;101613.53;5058068;28;1043;-55
2022/12/06 06:21:22;;;;;;;;;;;;;;;17.33;46.49;101618.13;5057631;28;1099;-56
2022/12/06 06:23:47;;;;;;;;;;;;;;;16.27;49.01;101611.78;5057695;28;1964;-54
2022/12/06 06:26:13;;;;;;;;;;;;;;;15.89;50.11;101614.19;5051747;28;1756;-54
2022/12/06 06:28:38;;;;;;;;;;;;;;;16.12;49.64;101623.34;5056757;28;1009;-54
2022/12/06 06:31:04;;;;;;;;;;;;;;;16.79;47.40;101618.81;5044806;28;1155;-56
2022/12/06 06:33:30;;;;;;;;;;;;;;;16.50;48.64;101624.47;4993271;28;11311;-53
2022/12/06 06:35:56;;;;;;;;;;;;;;;18.09;44.52;101609.81;4984940;28;1221;-51
2022/12/06 06:38:21;;;;;;;;;;;;;;;16.75;47.69;101600.09;4997528;28;1188;-50
2022/12/06 06:40:46;;;;;;;;;;;;;;;16.33;48.00;101605.28;4996241;28;1207;-51
2022/12/06 06:43:18;;;;;;;;;;;;;;;17.32;46.36;101613.72;4998602;28;1105;-47
2022/12/06 06:45:44;;;;;;;;;;;;;;;16.35;48.47;101608.59;4985088;28;1066;-47
2022/12/06 06:48:11;;;;;;;;;;;;;;;18.29;44.49;101608.28;4998500;28;1121;-51
2022/12/06 06:50:37;;;;;;;;;;;;;;;17.42;46.30;101606.41;4998513;28;1148;-49
2022/12/06 06:53:03;;;;;;;;;;;;;;;16.55;47.44;101613.56;4998128;28;1093;-49
2022/12/06 06:55:29;;;;;;;;;;;;;;;17.76;45.97;101600.69;4998370;28;1145;-50
2022/12/06 06:57:54;;;;;;;;;;;;;;;16.97;47.22;101604.81;4998240;28;1619;-51
2022/12/06 07:00:20;;;;;;;;;;;;;;;17.31;46.84;101601.91;4998517;28;1184;-47
2022/12/06 07:02:45;;;;;;;;;;;;;;;18.20;44.34;101605.22;4997935;28;1232;-50
2022/12/06 07:05:11;;;;;;;;;;;;;;;17.08;46.58;101606.59;4998659;28;1902;-50
2022/12/06 07:07:36;;;;;;;;;;;;;;;17.70;46.11;101607.25;4998238;28;1223;-52
2022/12/06 07:10:01;;;;;;;;;;;;;;;17.39;46.20;101601.44;4998225;28;1144;-53
2022/12/06 07:12:27;;;;;;;;;;;;;;;16.79;47.14;101602.34;4997929;28;1179;-48
2022/12/06 07:14:52;;;;;;;;;;;;;;;17.69;46.06;101593.75;4998286;28;1407;-49
2022/12/06 07:17:18;;;;;;;;;;;;;;;17.03;47.46;101603.78;4997922;28;1227;-51
2022/12/06 07:19:43;;;;;;;;;;;;;;;18.86;43.24;101590.16;4998218;28;1187;-50
2022/12/06 07:22:09;;;;;;;;;;;;;;;18.10;45.01;101594.97;4980521;28;1227;-50
2022/12/06 07:24:34;;;;;;;;;;;;;;;17.18;46.78;101594.06;4997614;28;2027;-46
2022/12/06 07:27:00;;;;;;;;;;;;;;;18.53;44.40;101585.88;4997722;28;1219;-50
2022/12/06 07:29:25;;;;;;;;;;;;;;;17.31;46.72;101599.16;4989893;28;1203;-46
2022/12/06 07:31:51;;;;;;;;;;;;;;;16.87;46.72;101596.41;4997831;28;1231;-51
2022/12/06 07:34:16;;;;;;;;;;;;;;;17.58;46.34;101595.56;4997136;28;1204;-51
2022/12/06 07:36:41;;;;;;;;;;;;;;;17.04;47.18;101593.63;4997614;28;1157;-48
2022/12/06 07:39:07;;;;;;;;;;;;;;;17.95;45.73;101592.91;4997888;28;1113;-49
2022/12/06 07:45:01;;;;;;;;;;;;;;;17.11;46.77;101597.03;4979941;28;1981;-52
2022/12/06 07:47:34;;;;;;;;;;;;;;;16.75;46.66;101591.88;4997725;28;1243;-49
2022/12/06 07:49:59;;;;;;;;;;;;;;;17.87;45.77;101592.53;4997874;28;1112;-50
2022/12/06 07:52:25;;;;;;;;;;;;;;;16.99;47.00;101597.13;4997631;28;1199;-52
2022/12/06 07:54:50;;;;;;;;;;;;;;;18.42;45.02;101585.78;4996569;28;908;-49
2022/12/06 07:57:15;;;;;;;;;;;;;;;17.82;45.87;101587.81;4997194;28;1117;-51
2022/12/06 07:59:41;;;;;;;;;;;;;;;17.15;46.96;101583.56;4997647;28;1196;-49
2022/12/06 08:02:06;;;;;;;;;;;;;;;17.30;47.01;101581.00;4997461;28;1180;-50
2022/12/06 08:04:32;;;;;;;;;;;;;;;17.23;47.01;101580.38;4997112;28;1914;-48
2022/12/06 08:06:59;;;;;;;;;;;;;;;16.99;47.60;101574.34;4996940;28;904;-52
2022/12/06 08:09:25;;;;;;;;;;;;;;;18.35;45.05;101574.19;4997136;28;1145;-52
2022/12/06 08:11:50;;;;;;;;;;;;;;;17.17;46.94;101578.66;4997868;28;1200;-51
2022/12/06 08:14:15;;;;;;;;;;;;;;;16.81;46.99;101569.97;4997168;28;1144;-51
2022/12/06 08:16:41;;;;;;;;;;;;;;;17.64;46.52;101558.75;4997182;28;1227;-51
2022/12/06 08:19:06;;;;;;;;;;;;;;;16.96;47.17;101561.94;4997265;28;867;-51
2022/12/06 08:21:32;;;;;;;;;;;;;;;18.24;45.55;101547.69;4996719;28;1125;-51
2022/12/06 08:23:57;;;;;;;;;;;;;;;17.40;46.88;101548.13;4996483;28;1910;-49
2022/12/06 08:26:23;;;;;;;;;;;;;;;16.87;47.41;101542.31;4996626;28;1156;-48
2022/12/06 08:28:48;;;;;;;;;;;;;;;17.88;46.22;101547.41;4997602;28;1192;-49
2022/12/06 08:31:16;;;;;;;;;;;;;;;17.05;47.30;101562.31;4996581;28;1105;-51
2022/12/06 08:33:41;;;;;;;;;;;;;;;17.10;47.78;101546.72;4997033;28;1097;-51
2022/12/06 08:36:10;;;;;;;;;;;;;;;17.27;47.15;101554.84;4996866;28;1116;-47
2022/12/06 08:38:36;;;;;;;;;;;;;;;17.23;47.47;101553.72;4987453;28;1125;-47
2022/12/06 08:41:02;;;;;;;;;;;;;;;18.54;44.63;101554.47;5000574;28;1215;-50
2022/12/06 08:43:27;;;;;;;;;;;;;;;17.31;46.89;101544.19;5000622;28;1914;-51
2022/12/06 08:45:53;;;;;;;;;;;;;;;16.86;47.09;101542.56;5000726;28;1235;-48
2022/12/06 08:48:18;;;;;;;;;;;;;;;17.26;47.20;101541.38;5001001;28;1108;-51
2022/12/06 08:50:44;;;;;;;;;;;;;;;17.65;46.60;101541.19;5000938;28;1177;-50
2022/12/06 08:53:09;;;;;;;;;;;;;;;16.92;47.62;101547.06;5000769;28;1172;-51
2022/12/06 08:55:34;;;;;;;;;;;;;;;17.87;46.61;101535.59;4986633;28;1050;-51
2022/12/06 08:58:00;;;;;;;;;;;;;;;17.08;47.72;101526.91;5000420;28;1215;-52
2022/12/06 09:00:25;;;;;;;;;;;;;;;17.67;47.12;101525.25;5000663;28;1208;-49
2022/12/06 09:02:51;;;;;;;;;;;;;;;18.19;45.55;101525.63;5000558;28;1136;-48
2022/12/06 09:05:16;;;;;;;;;;;;;;;17.13;47.27;101519.81;4986635;28;1958;-49
2022/12/06 09:07:41;;;;;;;;;;;;;;;17.50;47.00;101519.06;5000919;28;1129;-50
2022/12/06 09:10:07;;;;;;;;;;;;;;;17.29;47.23;101518.84;5000456;28;1098;-51
2022/12/06 09:12:32;;;;;;;;;;;;;;;17.60;47.21;101516.41;5000344;28;1129;-51
2022/12/06 09:14:58;;;;;;;;;;;;;;;18.56;44.78;101508.19;5000468;28;1121;-52
2022/12/06 09:17:24;;;;;;;;;;;;;;;17.21;46.85;101511.09;4999354;28;1226;-52
2022/12/06 09:19:49;;;;;;;;;;;;;;;16.92;46.90;101506.66;5000672;28;1160;-48
2022/12/06 09:22:14;;;;;;;;;;;;;;;17.64;46.74;101498.25;5000285;28;1322;-50
2022/12/06 09:24:40;;;;;;;;;;;;;;;17.14;47.25;101504.97;4999938;28;1983;-49
2022/12/06 09:27:05;;;;;;;;;;;;;;;18.00;46.15;101497.72;4999992;28;1156;-48
2022/12/06 09:29:31;;;;;;;;;;;;;;;18.45;44.79;101491.66;4999826;28;1172;-52
2022/12/06 09:31:56;;;;;;;;;;;;;;;17.28;47.21;101482.31;4999925;28;1125;-48
2022/12/06 09:34:21;;;;;;;;;;;;;;;18.16;46.11;101476.63;4999875;28;1184;-48
2022/12/06 09:37:06;;;;;;;;;;;;;;;17.65;46.60;101480.66;4999383;28;1209;-50
2022/12/06 09:39:32;;;;;;;;;;;;;;;17.09;46.67;101481.84;4999552;28;1156;-51
2022/12/06 09:42:01;;;;;;;;;;;;;;;17.33;47.12;101475.19;5000152;28;1211;-50
2022/12/06 09:44:45;;;;;;;;;;;;;;;17.43;46.98;101470.63;4999832;28;1914;-50
2022/12/06 09:47:29;;;;;;;;;;;;;;;16.98;46.91;101463.59;4986737;28;1089;-51
2022/12/06 09:50:13;;;;;;;;;;;;;;;17.98;46.18;101469.63;4999156;28;1192;-52
2022/12/06 09:52:57;;;;;;;;;;;;;;;17.02;47.26;101459.25;4999759;28;1223;-47
2022/12/06 09:55:43;;;;;;;;;;;;;;;17.92;46.21;101466.88;4999686;28;1200;-50
2022/12/06 09:58:27;;;;;;;;;;;;;;;17.03;47.31;101471.91;4968680;28;1189;-49
2022/12/06 10:00:52;;;;;;;;;;;;;;;16.91;47.46;101462.97;4987320;28;1122;-51
2022/12/06 10:03:18;;;;;;;;;;;;;;;17.47;46.82;101456.34;4999668;28;1136;-51
2022/12/06 10:05:54;;;;;;;;;;;;;;;16.86;47.52;101460.16;4999225;28;1910;-46
2022/12/06 10:08:19;;;;;;;;;;;;;;;18.58;45.15;101456.41;4999021;28;1140;-52
2022/12/06 10:11:03;;;;;;;;;;;;;;;17.34;47.16;101439.19;4999137;28;1204;-50
2022/12/06 10:13:39;;;;;;;;;;;;;;;17.33;47.55;101437.53;4999391;28;1152;-50
2022/12/06 10:16:08;;;;;;;;;;;;;;;17.50;47.08;101429.16;4981480;28;1125;-51
2022/12/06 10:18:34;;;;;;;;;;;;;;;17.98;46.52;101423.69;4998868;28;1234;-49
2022/12/06 10:21:11;;;;;;;;;;;;;;;19.24;43.25;101421.84;4999312;28;1207;-50
2022/12/06 10:23:55;;;;;;;;;;;;;;;17.62;46.54;101409.69;4998881;28;1983;-51
2022/12/06 10:26:24;;;;;;;;;;;;;;;17.13;46.72;101407.16;4986542;28;1101;-51
2022/12/06 10:29:08;;;;;;;;;;;;;;;18.03;46.13;101407.19;4981585;28;1429;-51
2022/12/06 10:31:37;;;;;;;;;;;;;;;17.15;47.18;101413.19;4992606;28;899;-51
2022/12/06 10:34:08;;;;;;;;;;;;;;;18.03;46.40;101412.69;4998645;28;1188;-51
2022/12/06 10:36:34;;;;;;;;;;;;;;;17.52;47.08;101407.72;4981573;28;1410;-48
2022/12/06 10:39:02;;;;;;;;;;;;;;;17.04;47.58;101399.38;4998461;28;1215;-48
2022/12/06 10:41:29;;;;;;;;;;;;;;;18.30;45.27;101400.72;4981417;28;1201;-50
2022/12/06 10:43:57;;;;;;;;;;;;;;;17.32;46.92;101402.91;4998546;28;1977;-51
2022/12/06 10:49:10;;;;;;;;;;;;;;;17.28;47.28;101390.78;4998811;28;1195;-48
2022/12/06 10:51:40;;;;;;;;;;;;;;;16.96;46.96;101394.34;4998208;28;1148;-48
2022/12/06 10:54:24;;;;;;;;;;;;;;;17.05;47.22;101392.78;4981306;28;1212;-48
2022/12/06 10:56:50;;;;;;;;;;;;;;;17.26;47.65;101387.44;4998549;28;1128;-51
2022/12/06 10:59:31;;;;;;;;;;;;;;;16.83;47.22;101389.25;4998171;28;1168;-51
2022/12/06 11:01:57;;;;;;;;;;;;;;;16.62;46.94;101385.47;4998041;28;1224;-51
2022/12/06 11:04:31;;;;;;;;;;;;;;;17.50;46.68;101384.31;4981171;28;1981;-49
2022/12/06 11:07:17;;;;;;;;;;;;;;;17.33;47.46;101376.22;4997962;28;1077;-50
2022/12/06 11:09:48;;;;;;;;;;;;;;;19.07;44.00;101376.09;4973039;28;1176;-51
2022/12/06 11:12:19;;;;;;;;;;;;;;;18.00;46.22;101374.72;4977094;28;1175;-53
2022/12/06 11:14:46;;;;;;;;;;;;;;;17.24;46.76;101364.91;4998106;28;1283;-52
2022/12/06 11:17:15;;;;;;;;;;;;;;;17.08;46.87;101364.78;4986705;28;1102;-53
2022/12/06 11:19:43;;;;;;;;;;;;;;;17.45;47.05;101358.44;4979933;28;1158;-49
2022/12/06 11:22:20;;;;;;;;;;;;;;;17.00;46.94;101358.94;4980988;28;1165;-51
2022/12/06 11:24:51;;;;;;;;;;;;;;;17.23;47.19;101366.00;4983613;28;2004;-52
2022/12/06 11:27:21;;;;;;;;;;;;;;;17.44;47.13;101356.78;4998213;28;1129;-53
2022/12/06 11:29:47;;;;;;;;;;;;;;;16.84;47.42;101350.53;4997942;28;1124;-53
2022/12/06 11:32:12;;;;;;;;;;;;;;;17.25;47.21;101355.56;4997616;28;913;-51
2022/12/06 11:34:40;;;;;;;;;;;;;;;17.14;47.44;101351.06;4979194;28;1235;-53
2022/12/06 11:37:05;;;;;;;;;;;;;;;17.15;47.92;101360.97;4995750;28;1823;-55
2022/12/06 11:39:31;;;;;;;;;;;;;;;18.42;45.25;101350.91;4996993;28;1133;-51
2022/12/06 11:41:57;;;;;;;;;;;;;;;17.22;47.33;101348.69;4997201;28;1284;-51
2022/12/06 11:44:37;;;;;;;;;;;;;;;16.88;47.18;101342.59;4997162;28;1961;-50
2022/12/06 11:47:02;;;;;;;;;;;;;;;17.93;46.38;101341.13;4980345;28;1236;-51
2022/12/06 11:49:36;;;;;;;;;;;;;;;17.27;48.08;101337.72;4969689;28;1340;-48
2022/12/06 11:52:12;;;;;;;;;;;;;;;19.14;43.96;101337.22;4986390;28;1158;-50
2022/12/06 11:54:40;;;;;;;;;;;;;;;17.99;46.18;101334.53;4970969;28;1189;-49
2022/12/06 11:57:13;;;;;;;;;;;;;;;17.33;46.49;101330.31;4979755;28;1118;-53
2022/12/06 11:59:39;;;;;;;;;;;;;;;17.04;46.28;101330.69;4979913;28;1169;-53
2022/12/06 12:02:04;;;;;;;;;;;;;;;17.99;46.21;101328.22;4979734;28;1133;-52
2022/12/06 12:04:33;;;;;;;;;;;;;;;17.26;47.81;101332.47;4996894;28;1976;-51
2022/12/06 12:06:59;;;;;;;;;;;;;;;19.21;43.70;101329.50;4996568;28;1288;-55
2022/12/06 12:09:26;;;;;;;;;;;;;;;18.38;45.16;101333.28;4990600;28;1286;-54
2022/12/06 12:11:52;;;;;;;;;;;;;;;17.50;46.42;101321.06;4972431;28;1134;-50
2022/12/06 12:14:23;;;;;;;;;;;;;;;17.16;46.46;101332.41;4996929;28;1160;-54
2022/12/06 12:16:49;;;;;;;;;;;;;;;17.72;46.53;101330.00;4979906;28;1077;-52
2022/12/06 12:19:27;;;;;;;;;;;;;;;17.09;46.85;101333.47;4997300;28;1208;-45
2022/12/06 12:21:52;;;;;;;;;;;;;;;19.07;44.18;101331.97;4978860;28;1297;-51
2022/12/06 12:24:36;;;;;;;;;;;;;;;17.64;46.78;101327.75;4967505;28;1910;-50
2022/12/06 12:27:03;;;;;;;;;;;;;;;17.22;46.37;101321.19;4994749;28;1204;-52
2022/12/06 12:29:29;;;;;;;;;;;;;;;17.33;46.63;101322.06;4978843;28;1359;-50
2022/12/06 12:31:55;;;;;;;;;;;;;;;17.42;47.02;101326.00;4977965;28;1169;-49
2022/12/06 12:34:25;;;;;;;;;;;;;;;16.95;47.21;101326.75;4990455;28;1101;-52
2022/12/06 12:36:51;;;;;;;;;;;;;;;18.52;45.25;101319.81;4996618;28;1191;-51
2022/12/06 12:39:33;;;;;;;;;;;;;;;17.38;47.05;101308.38;4994280;28;1295;-51
2022/12/06 12:41:59;;;;;;;;;;;;;;;18.76;44.82;101312.69;4979130;28;1137;-51
2022/12/06 12:44:31;;;;;;;;;;;;;;;18.05;45.93;101305.94;4978688;28;1975;-48
2022/12/06 12:46:57;;;;;;;;;;;;;;;17.37;46.95;101309.47;4979496;28;1133;-49
2022/12/06 12:49:29;;;;;;;;;;;;;;;17.20;46.78;101304.13;4979546;28;1200;-50
2022/12/06 12:51:55;;;;;;;;;;;;;;;17.84;46.33;101310.53;4996453;28;1258;-50
2022/12/06 12:54:21;;;;;;;;;;;;;;;17.10;47.07;101296.66;4996158;28;1148;-52
2022/12/06 12:56:47;;;;;;;;;;;;;;;17.03;46.42;101301.56;4996851;28;1223;-50
2022/12/06 12:59:14;;;;;;;;;;;;;;;17.47;47.11;101294.13;4996985;28;1077;-49
2022/12/06 13:01:42;;;;;;;;;;;;;;;17.06;46.97;101295.53;4979047;28;1181;-53
2022/12/06 13:04:23;;;;;;;;;;;;;;;17.46;46.84;101290.56;4996288;28;1899;-52
2022/12/06 13:07:15;;;;;;;;;;;;;;;17.07;47.41;101288.94;4993438;28;1231;-53
2022/12/06 13:09:46;;;;;;;;;;;;;;;16.92;47.39;101299.81;4990741;28;1217;-50
2022/12/06 13:12:32;;;;;;;;;;;;;;;17.84;46.40;101293.19;4992036;28;1248;-52
2022/12/06 13:15:04;;;;;;;;;;;;;;;17.01;47.40;101286.41;4987983;28;1604;-50
2022/12/06 13:17:31;;;;;;;;;;;;;;;17.37;47.33;101292.16;4991360;28;1202;-52